sensor_id;sensor_type;location;lat;lon;timestamp;pressure;altitude;pressure_sealevel;temperature;humidity
53651;BME280;39552;45.776;15.892;2022-10-14T00:00:07;100755.25;;;12.85;100.00
53651;BME280;39552;45.776;15.892;2022-10-14T00:02:35;100755.50;;;12.80;100.00
53651;BME280;39552;45.776;15.892;2022-10-14T00:05:02;100761.63;;;12.69;100.00
53651;BME280;39552;45.776;15.892;2022-10-14T00:07:28;100761.09;;;12.63;100.00
53651;BME280;39552;45.776;15.892;2022-10-14T00:09:55;100768.41;;;12.76;100.00
53651;BME280;39552;45.776;15.892;2022-10-14T00:12:21;100767.81;;;12.71;100.00
53651;BME280;39552;45.776;15.892;2022-10-14T00:14:48;100764.91;;;12.74;100.00
53651;BME280;39552;45.776;15.892;2022-10-14T00:17:21;100766.47;;;12.78;100.00
53651;BME280;39552;45.776;15.892;2022-10-14T00:19:51;100767.28;;;12.81;100.00
53651;BME280;39552;45.776;15.892;2022-10-14T00:22:18;100762.50;;;12.84;100.00
53651;BME280;39552;45.776;15.892;2022-10-14T00:24:44;100762.81;;;12.94;100.00
53651;BME280;39552;45.776;15.892;2022-10-14T00:27:11;100761.16;;;12.77;100.00
53651;BME280;39552;45.776;15.892;2022-10-14T00:29:37;100744.94;;;12.75;100.00
53651;BME280;39552;45.776;15.892;2022-10-14T00:32:04;100755.19;;;12.70;100.00
53651;BME280;39552;45.776;15.892;2022-10-14T00:34:30;100755.56;;;12.64;100.00
53651;BME280;39552;45.776;15.892;2022-10-14T00:37:00;100756.75;;;12.74;100.00
53651;BME280;39552;45.776;15.892;2022-10-14T00:39:27;100749.22;;;12.79;100.00
53651;BME280;39552;45.776;15.892;2022-10-14T00:41:53;100746.91;;;12.88;100.00
53651;BME280;39552;45.776;15.892;2022-10-14T00:47:05;100746.81;;;12.59;100.00
53651;BME280;39552;45.776;15.892;2022-10-14T00:49:33;100744.22;;;12.57;100.00
53651;BME280;39552;45.776;15.892;2022-10-14T00:52:05;100736.63;;;12.48;100.00
53651;BME280;39552;45.776;15.892;2022-10-14T00:54:34;100741.44;;;12.43;100.00
53651;BME280;39552;45.776;15.892;2022-10-14T00:57:03;100739.25;;;12.50;100.00
53651;BME280;39552;45.776;15.892;2022-10-14T00:59:30;100737.22;;;12.53;100.00
53651;BME280;39552;45.776;15.892;2022-10-14T01:01:57;100734.91;;;12.31;100.00
53651;BME280;39552;45.776;15.892;2022-10-14T01:04:24;100734.91;;;12.31;100.00
53651;BME280;39552;45.776;15.892;2022-10-14T01:06:53;100736.75;;;12.31;100.00
53651;BME280;39552;45.776;15.892;2022-10-14T01:09:25;100736.41;;;12.37;100.00
53651;BME280;39552;45.776;15.892;2022-10-14T01:11:57;100732.91;;;12.35;100.00
53651;BME280;39552;45.776;15.892;2022-10-14T01:14:49;100722.22;;;12.32;100.00
53651;BME280;39552;45.776;15.892;2022-10-14T01:17:17;100727.75;;;12.14;100.00
53651;BME280;39552;45.776;15.892;2022-10-14T01:19:54;100723.31;;;11.97;100.00
53651;BME280;39552;45.776;15.892;2022-10-14T01:22:25;100722.34;;;12.14;100.00
53651;BME280;39552;45.776;15.892;2022-10-14T01:24:57;100723.59;;;11.93;100.00
53651;BME280;39552;45.776;15.892;2022-10-14T01:27:42;100727.50;;;11.87;100.00
53651;BME280;39552;45.776;15.892;2022-10-14T01:30:16;100726.44;;;11.58;100.00
53651;BME280;39552;45.776;15.892;2022-10-14T01:32:51;100720.25;;;11.72;100.00
53651;BME280;39552;45.776;15.892;2022-10-14T01:35:22;100726.09;;;11.80;100.00
53651;BME280;39552;45.776;15.892;2022-10-14T01:37:51;100716.06;;;11.82;100.00
53651;BME280;39552;45.776;15.892;2022-10-14T01:40:20;100717.88;;;11.81;100.00
53651;BME280;39552;45.776;15.892;2022-10-14T01:42:47;100710.53;;;11.84;100.00
53651;BME280;39552;45.776;15.892;2022-10-14T01:45:16;100714.47;;;11.78;100.00
53651;BME280;39552;45.776;15.892;2022-10-14T01:47:46;100706.44;;;11.76;100.00
53651;BME280;39552;45.776;15.892;2022-10-14T01:50:15;100704.69;;;11.75;100.00
53651;BME280;39552;45.776;15.892;2022-10-14T01:52:43;100709.06;;;11.62;100.00
53651;BME280;39552;45.776;15.892;2022-10-14T01:55:12;100700.56;;;11.52;100.00
53651;BME280;39552;45.776;15.892;2022-10-14T01:57:40;100705.56;;;11.44;100.00
53651;BME280;39552;45.776;15.892;2022-10-14T02:00:08;100705.03;;;11.53;100.00
53651;BME280;39552;45.776;15.892;2022-10-14T02:02:35;100695.50;;;11.62;100.00
53651;BME280;39552;45.776;15.892;2022-10-14T02:05:04;100699.00;;;11.64;100.00
53651;BME280;39552;45.776;15.892;2022-10-14T02:07:33;100696.84;;;11.71;100.00
53651;BME280;39552;45.776;15.892;2022-10-14T02:10:04;100693.22;;;11.70;100.00
53651;BME280;39552;45.776;15.892;2022-10-14T02:12:42;100699.09;;;11.63;100.00
53651;BME280;39552;45.776;15.892;2022-10-14T02:15:12;100686.75;;;11.57;100.00
53651;BME280;39552;45.776;15.892;2022-10-14T02:17:42;100695.06;;;11.70;100.00
53651;BME280;39552;45.776;15.892;2022-10-14T02:20:16;100696.72;;;11.56;100.00
53651;BME280;39552;45.776;15.892;2022-10-14T02:22:46;100689.94;;;11.49;100.00
53651;BME280;39552;45.776;15.892;2022-10-14T02:25:15;100689.72;;;11.52;100.00
53651;BME280;39552;45.776;15.892;2022-10-14T02:27:43;100685.09;;;11.54;100.00
53651;BME280;39552;45.776;15.892;2022-10-14T02:30:12;100677.69;;;11.58;100.00
53651;BME280;39552;45.776;15.892;2022-10-14T02:32:38;100682.03;;;11.45;100.00
53651;BME280;39552;45.776;15.892;2022-10-14T02:35:05;100679.75;;;11.53;100.00
53651;BME280;39552;45.776;15.892;2022-10-14T02:37:37;100684.81;;;11.43;100.00
53651;BME280;39552;45.776;15.892;2022-10-14T02:40:07;100677.50;;;11.45;100.00
53651;BME280;39552;45.776;15.892;2022-10-14T02:42:36;100670.84;;;11.35;100.00
53651;BME280;39552;45.776;15.892;2022-10-14T02:45:03;100672.41;;;11.39;100.00
53651;BME280;39552;45.776;15.892;2022-10-14T02:47:31;100671.13;;;11.30;100.00
53651;BME280;39552;45.776;15.892;2022-10-14T02:49:57;100676.59;;;11.13;100.00
53651;BME280;39552;45.776;15.892;2022-10-14T02:52:23;100678.88;;;11.20;100.00
53651;BME280;39552;45.776;15.892;2022-10-14T02:54:51;100678.88;;;11.20;100.00
53651;BME280;39552;45.776;15.892;2022-10-14T02:57:18;100671.78;;;11.18;100.00
53651;BME280;39552;45.776;15.892;2022-10-14T02:59:44;100673.78;;;11.14;100.00
53651;BME280;39552;45.776;15.892;2022-10-14T03:02:11;100678.19;;;11.17;100.00
53651;BME280;39552;45.776;15.892;2022-10-14T03:04:38;100677.97;;;11.04;100.00
53651;BME280;39552;45.776;15.892;2022-10-14T03:07:04;100679.72;;;11.05;100.00
53651;BME280;39552;45.776;15.892;2022-10-14T03:09:31;100679.50;;;10.92;100.00
53651;BME280;39552;45.776;15.892;2022-10-14T03:11:59;100673.38;;;10.89;100.00
53651;BME280;39552;45.776;15.892;2022-10-14T03:14:25;100678.19;;;10.84;100.00
53651;BME280;39552;45.776;15.892;2022-10-14T03:16:52;100678.47;;;10.95;100.00
53651;BME280;39552;45.776;15.892;2022-10-14T03:19:26;100677.56;;;10.78;100.00
53651;BME280;39552;45.776;15.892;2022-10-14T03:21:52;100676.13;;;10.71;100.00
53651;BME280;39552;45.776;15.892;2022-10-14T03:24:19;100693.16;;;10.73;100.00
53651;BME280;39552;45.776;15.892;2022-10-14T03:26:45;100692.38;;;10.71;100.00
53651;BME280;39552;45.776;15.892;2022-10-14T03:29:13;100696.47;;;10.62;100.00
53651;BME280;39552;45.776;15.892;2022-10-14T03:31:40;100710.66;;;10.66;100.00
53651;BME280;39552;45.776;15.892;2022-10-14T03:34:07;100700.03;;;10.63;100.00
53651;BME280;39552;45.776;15.892;2022-10-14T03:36:33;100698.78;;;10.53;100.00
53651;BME280;39552;45.776;15.892;2022-10-14T03:39:00;100698.19;;;10.46;100.00
53651;BME280;39552;45.776;15.892;2022-10-14T03:41:26;100697.56;;;10.41;100.00
53651;BME280;39552;45.776;15.892;2022-10-14T03:43:53;100692.56;;;10.51;100.00
53651;BME280;39552;45.776;15.892;2022-10-14T03:46:20;100682.34;;;10.56;100.00
53651;BME280;39552;45.776;15.892;2022-10-14T03:48:47;100679.19;;;10.48;100.00
53651;BME280;39552;45.776;15.892;2022-10-14T03:51:13;100667.56;;;10.46;100.00
53651;BME280;39552;45.776;15.892;2022-10-14T03:53:40;100683.00;;;10.43;100.00
53651;BME280;39552;45.776;15.892;2022-10-14T03:56:06;100680.06;;;10.31;100.00
53651;BME280;39552;45.776;15.892;2022-10-14T03:58:33;100685.75;;;10.24;100.00
53651;BME280;39552;45.776;15.892;2022-10-14T04:00:59;100685.88;;;10.04;100.00
53651;BME280;39552;45.776;15.892;2022-10-14T04:03:27;100689.97;;;10.13;100.00
53651;BME280;39552;45.776;15.892;2022-10-14T04:05:54;100688.69;;;10.02;100.00
53651;BME280;39552;45.776;15.892;2022-10-14T04:08:21;100691.22;;;10.06;100.00
53651;BME280;39552;45.776;15.892;2022-10-14T04:10:55;100689.16;;;9.93;100.00
53651;BME280;39552;45.776;15.892;2022-10-14T04:16:08;100692.97;;;9.89;100.00
53651;BME280;39552;45.776;15.892;2022-10-14T04:18:42;100693.19;;;10.02;100.00
53651;BME280;39552;45.776;15.892;2022-10-14T04:21:10;100697.09;;;10.14;100.00
53651;BME280;39552;45.776;15.892;2022-10-14T04:23:37;100683.91;;;10.25;100.00
53651;BME280;39552;45.776;15.892;2022-10-14T04:26:06;100693.31;;;10.18;100.00
53651;BME280;39552;45.776;15.892;2022-10-14T04:28:34;100692.91;;;10.26;100.00
53651;BME280;39552;45.776;15.892;2022-10-14T04:31:03;100657.13;;;10.03;100.00
53651;BME280;39552;45.776;15.892;2022-10-14T04:33:47;100660.09;;;10.33;100.00
53651;BME280;39552;45.776;15.892;2022-10-14T04:36:16;100663.91;;;10.47;100.00
53651;BME280;39552;45.776;15.892;2022-10-14T04:38:43;100688.56;;;10.58;100.00
53651;BME280;39552;45.776;15.892;2022-10-14T04:41:10;100685.06;;;10.56;100.00
53651;BME280;39552;45.776;15.892;2022-10-14T04:43:36;100657.88;;;10.41;100.00
53651;BME280;39552;45.776;15.892;2022-10-14T04:46:03;100673.03;;;10.61;100.00
53651;BME280;39552;45.776;15.892;2022-10-14T04:48:36;100662.56;;;10.55;100.00
53651;BME280;39552;45.776;15.892;2022-10-14T04:51:09;100641.63;;;10.59;100.00
53651;BME280;39552;45.776;15.892;2022-10-14T04:53:44;100665.16;;;10.74;100.00
53651;BME280;39552;45.776;15.892;2022-10-14T04:56:13;100653.16;;;10.62;100.00
53651;BME280;39552;45.776;15.892;2022-10-14T04:58:43;100665.50;;;10.51;100.00
53651;BME280;39552;45.776;15.892;2022-10-14T05:01:10;100626.13;;;10.28;100.00
53651;BME280;39552;45.776;15.892;2022-10-14T05:03:37;100662.38;;;10.41;100.00
53651;BME280;39552;45.776;15.892;2022-10-14T05:06:04;100647.91;;;10.24;100.00
53651;BME280;39552;45.776;15.892;2022-10-14T05:08:35;100644.03;;;10.48;100.00
53651;BME280;39552;45.776;15.892;2022-10-14T05:11:04;100634.63;;;10.55;100.00
53651;BME280;39552;45.776;15.892;2022-10-14T05:13:35;100686.50;;;10.63;100.00
53651;BME280;39552;45.776;15.892;2022-10-14T05:16:05;100670.28;;;10.46;100.00
53651;BME280;39552;45.776;15.892;2022-10-14T05:18:32;100702.75;;;10.46;100.00
53651;BME280;39552;45.776;15.892;2022-10-14T05:21:06;100701.47;;;10.70;100.00
53651;BME280;39552;45.776;15.892;2022-10-14T05:23:34;100686.19;;;10.52;100.00
53651;BME280;39552;45.776;15.892;2022-10-14T05:26:01;100688.81;;;10.36;100.00
53651;BME280;39552;45.776;15.892;2022-10-14T05:28:27;100696.31;;;10.29;100.00
53651;BME280;39552;45.776;15.892;2022-10-14T05:30:54;100693.06;;;10.05;100.00
53651;BME280;39552;45.776;15.892;2022-10-14T05:33:21;100695.84;;;10.03;100.00
53651;BME280;39552;45.776;15.892;2022-10-14T05:35:48;100684.34;;;9.81;100.00
53651;BME280;39552;45.776;15.892;2022-10-14T05:38:30;100670.97;;;10.14;100.00
53651;BME280;39552;45.776;15.892;2022-10-14T05:40:58;100691.53;;;10.36;100.00
53651;BME280;39552;45.776;15.892;2022-10-14T05:43:25;100675.75;;;10.27;100.00
53651;BME280;39552;45.776;15.892;2022-10-14T05:45:58;100659.75;;;10.04;100.00
53651;BME280;39552;45.776;15.892;2022-10-14T05:48:24;100678.09;;;9.98;100.00
53651;BME280;39552;45.776;15.892;2022-10-14T05:50:51;100680.84;;;10.33;100.00
53651;BME280;39552;45.776;15.892;2022-10-14T05:53:18;100683.63;;;10.49;100.00
53651;BME280;39552;45.776;15.892;2022-10-14T05:55:44;100677.28;;;10.32;100.00
53651;BME280;39552;45.776;15.892;2022-10-14T05:58:12;100651.78;;;10.01;100.00
53651;BME280;39552;45.776;15.892;2022-10-14T06:00:39;100681.94;;;10.11;100.00
53651;BME280;39552;45.776;15.892;2022-10-14T06:03:13;100664.13;;;10.24;100.00
53651;BME280;39552;45.776;15.892;2022-10-14T06:05:44;100675.84;;;10.42;100.00
53651;BME280;39552;45.776;15.892;2022-10-14T06:08:10;100676.75;;;10.43;100.00
53651;BME280;39552;45.776;15.892;2022-10-14T06:10:37;100678.72;;;10.57;100.00
53651;BME280;39552;45.776;15.892;2022-10-14T06:13:04;100654.38;;;10.39;100.00
53651;BME280;39552;45.776;15.892;2022-10-14T06:15:36;100668.28;;;10.67;100.00
53651;BME280;39552;45.776;15.892;2022-10-14T06:18:06;100662.28;;;10.60;100.00
53651;BME280;39552;45.776;15.892;2022-10-14T06:20:33;100611.50;;;10.49;100.00
53651;BME280;39552;45.776;15.892;2022-10-14T06:23:00;100681.84;;;10.82;100.00
53651;BME280;39552;45.776;15.892;2022-10-14T06:25:31;100686.16;;;10.69;100.00
53651;BME280;39552;45.776;15.892;2022-10-14T06:28:15;100685.19;;;10.88;100.00
53651;BME280;39552;45.776;15.892;2022-10-14T06:30:58;100676.44;;;10.82;100.00
53651;BME280;39552;45.776;15.892;2022-10-14T06:33:28;100653.13;;;10.80;100.00
53651;BME280;39552;45.776;15.892;2022-10-14T06:35:59;100704.88;;;11.07;100.00
53651;BME280;39552;45.776;15.892;2022-10-14T06:38:57;100708.00;;;10.99;100.00
53651;BME280;39552;45.776;15.892;2022-10-14T06:44:45;100707.16;;;10.81;100.00
53651;BME280;39552;45.776;15.892;2022-10-14T06:47:13;100667.44;;;10.82;100.00
53651;BME280;39552;45.776;15.892;2022-10-14T06:49:48;100651.50;;;10.93;100.00
53651;BME280;39552;45.776;15.892;2022-10-14T06:52:21;100678.16;;;11.01;100.00
53651;BME280;39552;45.776;15.892;2022-10-14T06:55:00;100669.06;;;11.18;100.00
53651;BME280;39552;45.776;15.892;2022-10-14T06:57:29;100692.16;;;11.57;100.00
53651;BME280;39552;45.776;15.892;2022-10-14T06:59:55;100691.66;;;11.66;100.00
53651;BME280;39552;45.776;15.892;2022-10-14T07:02:26;100691.94;;;11.61;100.00
53651;BME280;39552;45.776;15.892;2022-10-14T07:04:53;100701.09;;;11.75;100.00
53651;BME280;39552;45.776;15.892;2022-10-14T07:07:20;100691.41;;;11.71;100.00
53651;BME280;39552;45.776;15.892;2022-10-14T07:09:46;100675.50;;;11.80;100.00
53651;BME280;39552;45.776;15.892;2022-10-14T07:12:13;100688.50;;;11.90;100.00
53651;BME280;39552;45.776;15.892;2022-10-14T07:14:40;100670.66;;;11.86;100.00
53651;BME280;39552;45.776;15.892;2022-10-14T07:17:10;100648.47;;;11.79;100.00
53651;BME280;39552;45.776;15.892;2022-10-14T07:19:38;100669.38;;;11.77;100.00
53651;BME280;39552;45.776;15.892;2022-10-14T07:22:08;100667.88;;;11.71;100.00
53651;BME280;39552;45.776;15.892;2022-10-14T07:24:38;100657.81;;;11.89;100.00
53651;BME280;39552;45.776;15.892;2022-10-14T07:27:07;100692.25;;;12.03;100.00
53651;BME280;39552;45.776;15.892;2022-10-14T07:29:33;100666.50;;;11.96;100.00
53651;BME280;39552;45.776;15.892;2022-10-14T07:32:00;100690.78;;;12.13;100.00
53651;BME280;39552;45.776;15.892;2022-10-14T07:34:27;100694.06;;;12.18;100.00
53651;BME280;39552;45.776;15.892;2022-10-14T07:36:55;100699.88;;;12.43;100.00
53651;BME280;39552;45.776;15.892;2022-10-14T07:43:20;100665.69;;;12.24;100.00
53651;BME280;39552;45.776;15.892;2022-10-14T07:45:50;100704.56;;;12.55;100.00
53651;BME280;39552;45.776;15.892;2022-10-14T07:51:32;100708.41;;;12.36;100.00
53651;BME280;39552;45.776;15.892;2022-10-14T07:54:02;100679.25;;;12.54;100.00
53651;BME280;39552;45.776;15.892;2022-10-14T07:56:41;100691.59;;;12.30;100.00
53651;BME280;39552;45.776;15.892;2022-10-14T07:59:20;100671.72;;;12.29;100.00
53651;BME280;39552;45.776;15.892;2022-10-14T08:01:48;100699.75;;;12.74;100.00
53651;BME280;39552;45.776;15.892;2022-10-14T08:04:17;100667.38;;;12.86;100.00
53651;BME280;39552;45.776;15.892;2022-10-14T08:06:46;100659.41;;;13.26;100.00
53651;BME280;39552;45.776;15.892;2022-10-14T08:09:17;100687.66;;;13.23;100.00
53651;BME280;39552;45.776;15.892;2022-10-14T08:11:46;100685.81;;;12.95;100.00
53651;BME280;39552;45.776;15.892;2022-10-14T08:14:15;100667.84;;;12.78;100.00
53651;BME280;39552;45.776;15.892;2022-10-14T08:16:42;100671.44;;;13.07;100.00
53651;BME280;39552;45.776;15.892;2022-10-14T08:19:10;100687.84;;;12.91;100.00
53651;BME280;39552;45.776;15.892;2022-10-14T08:21:40;100704.22;;;12.90;100.00
53651;BME280;39552;45.776;15.892;2022-10-14T08:24:20;100684.25;;;12.91;100.00
53651;BME280;39552;45.776;15.892;2022-10-14T08:26:52;100717.56;;;13.23;100.00
53651;BME280;39552;45.776;15.892;2022-10-14T08:29:20;100710.69;;;13.32;100.00
53651;BME280;39552;45.776;15.892;2022-10-14T08:32:07;100693.00;;;13.10;100.00
53651;BME280;39552;45.776;15.892;2022-10-14T08:34:35;100720.69;;;13.31;100.00
53651;BME280;39552;45.776;15.892;2022-10-14T08:37:04;100709.47;;;13.07;100.00
53651;BME280;39552;45.776;15.892;2022-10-14T08:39:38;100666.50;;;13.43;100.00
53651;BME280;39552;45.776;15.892;2022-10-14T08:42:19;100691.28;;;13.80;100.00
53651;BME280;39552;45.776;15.892;2022-10-14T08:44:55;100663.00;;;14.09;100.00
53651;BME280;39552;45.776;15.892;2022-10-14T08:47:33;100673.78;;;13.84;100.00
53651;BME280;39552;45.776;15.892;2022-10-14T08:50:03;100705.97;;;14.04;100.00
53651;BME280;39552;45.776;15.892;2022-10-14T08:52:40;100695.06;;;13.35;100.00
53651;BME280;39552;45.776;15.892;2022-10-14T08:55:24;100712.13;;;13.37;100.00
53651;BME280;39552;45.776;15.892;2022-10-14T08:57:57;100700.66;;;13.32;100.00
53651;BME280;39552;45.776;15.892;2022-10-14T09:00:27;100705.53;;;13.56;100.00
53651;BME280;39552;45.776;15.892;2022-10-14T09:02:57;100714.84;;;13.23;100.00
53651;BME280;39552;45.776;15.892;2022-10-14T09:05:25;100719.19;;;13.96;100.00
53651;BME280;39552;45.776;15.892;2022-10-14T09:07:54;100710.69;;;13.88;100.00
53651;BME280;39552;45.776;15.892;2022-10-14T09:10:27;100692.03;;;13.54;100.00
53651;BME280;39552;45.776;15.892;2022-10-14T09:13:08;100722.09;;;13.51;100.00
53651;BME280;39552;45.776;15.892;2022-10-14T09:15:39;100721.03;;;13.54;100.00
53651;BME280;39552;45.776;15.892;2022-10-14T09:18:16;100723.34;;;13.74;100.00
53651;BME280;39552;45.776;15.892;2022-10-14T09:20:46;100714.34;;;14.01;100.00
53651;BME280;39552;45.776;15.892;2022-10-14T09:23:16;100702.56;;;14.28;100.00
53651;BME280;39552;45.776;15.892;2022-10-14T09:25:52;100693.75;;;13.97;100.00
53651;BME280;39552;45.776;15.892;2022-10-14T09:28:30;100706.84;;;14.05;100.00
53651;BME280;39552;45.776;15.892;2022-10-14T09:30:59;100674.53;;;14.13;100.00
53651;BME280;39552;45.776;15.892;2022-10-14T09:33:26;100699.56;;;14.45;100.00
53651;BME280;39552;45.776;15.892;2022-10-14T09:35:54;100704.53;;;14.39;100.00
53651;BME280;39552;45.776;15.892;2022-10-14T09:38:20;100703.00;;;14.22;100.00
53651;BME280;39552;45.776;15.892;2022-10-14T09:40:51;100701.41;;;14.45;100.00
53651;BME280;39552;45.776;15.892;2022-10-14T09:43:21;100699.31;;;14.35;100.00
53651;BME280;39552;45.776;15.892;2022-10-14T09:45:51;100695.09;;;14.44;100.00
53651;BME280;39552;45.776;15.892;2022-10-14T09:48:26;100696.56;;;14.63;100.00
53651;BME280;39552;45.776;15.892;2022-10-14T09:50:56;100694.41;;;14.81;100.00
53651;BME280;39552;45.776;15.892;2022-10-14T09:53:27;100692.47;;;14.96;100.00
53651;BME280;39552;45.776;15.892;2022-10-14T09:55:58;100684.84;;;14.88;100.00
53651;BME280;39552;45.776;15.892;2022-10-14T09:58:31;100682.75;;;15.04;100.00
53651;BME280;39552;45.776;15.892;2022-10-14T10:01:01;100679.00;;;15.18;100.00
53651;BME280;39552;45.776;15.892;2022-10-14T10:03:29;100669.97;;;15.18;100.00
53651;BME280;39552;45.776;15.892;2022-10-14T10:06:03;100680.66;;;15.21;100.00
53651;BME280;39552;45.776;15.892;2022-10-14T10:08:31;100691.78;;;15.43;100.00
53651;BME280;39552;45.776;15.892;2022-10-14T10:11:02;100688.59;;;15.37;100.00
53651;BME280;39552;45.776;15.892;2022-10-14T10:13:41;100686.50;;;15.53;100.00
53651;BME280;39552;45.776;15.892;2022-10-14T10:16:18;100673.78;;;15.78;100.00
53651;BME280;39552;45.776;15.892;2022-10-14T10:18:46;100661.22;;;15.88;100.00
53651;BME280;39552;45.776;15.892;2022-10-14T10:21:21;100675.19;;;15.83;100.00
53651;BME280;39552;45.776;15.892;2022-10-14T10:23:55;100672.69;;;16.04;100.00
53651;BME280;39552;45.776;15.892;2022-10-14T10:26:27;100648.44;;;15.88;100.00
53651;BME280;39552;45.776;15.892;2022-10-14T10:28:59;100665.38;;;16.29;100.00
53651;BME280;39552;45.776;15.892;2022-10-14T10:31:38;100662.00;;;16.25;100.00
53651;BME280;39552;45.776;15.892;2022-10-14T10:34:31;100640.53;;;16.21;100.00
53651;BME280;39552;45.776;15.892;2022-10-14T10:37:04;100654.22;;;16.43;100.00
53651;BME280;39552;45.776;15.892;2022-10-14T10:39:38;100633.72;;;16.38;100.00
53651;BME280;39552;45.776;15.892;2022-10-14T10:42:20;100612.19;;;16.46;100.00
53651;BME280;39552;45.776;15.892;2022-10-14T10:45:01;100635.78;;;16.58;100.00
53651;BME280;39552;45.776;15.892;2022-10-14T10:47:33;100614.16;;;16.55;100.00
53651;BME280;39552;45.776;15.892;2022-10-14T10:50:29;100600.38;;;16.57;100.00
53651;BME280;39552;45.776;15.892;2022-10-14T10:53:16;100602.28;;;16.67;100.00
53651;BME280;39552;45.776;15.892;2022-10-14T10:56:00;100613.81;;;16.60;100.00
53651;BME280;39552;45.776;15.892;2022-10-14T10:58:49;100611.59;;;16.76;100.00
53651;BME280;39552;45.776;15.892;2022-10-14T11:01:31;100609.63;;;16.89;100.00
53651;BME280;39552;45.776;15.892;2022-10-14T11:04:12;100611.41;;;16.90;100.00
53651;BME280;39552;45.776;15.892;2022-10-14T11:06:44;100610.63;;;17.11;100.00
53651;BME280;39552;45.776;15.892;2022-10-14T11:09:18;100593.47;;;17.20;100.00
53651;BME280;39552;45.776;15.892;2022-10-14T11:11:54;100592.13;;;17.03;100.00
53651;BME280;39552;45.776;15.892;2022-10-14T11:14:40;100579.31;;;17.15;100.00
53651;BME280;39552;45.776;15.892;2022-10-14T11:17:13;100577.44;;;17.27;100.00
53651;BME280;39552;45.776;15.892;2022-10-14T11:19:49;100563.16;;;17.23;100.00
53651;BME280;39552;45.776;15.892;2022-10-14T11:22:40;100551.63;;;17.08;100.00
53651;BME280;39552;45.776;15.892;2022-10-14T11:25:19;100578.03;;;17.42;100.00
53651;BME280;39552;45.776;15.892;2022-10-14T11:27:55;100561.97;;;17.60;100.00
53651;BME280;39552;45.776;15.892;2022-10-14T11:30:35;100553.97;;;17.68;100.00
53651;BME280;39552;45.776;15.892;2022-10-14T11:33:15;100563.97;;;17.90;100.00
53651;BME280;39552;45.776;15.892;2022-10-14T11:35:51;100566.25;;;17.85;100.00
53651;BME280;39552;45.776;15.892;2022-10-14T11:38:37;100537.19;;;17.94;100.00
53651;BME280;39552;45.776;15.892;2022-10-14T11:41:12;100555.78;;;18.11;100.00
53651;BME280;39552;45.776;15.892;2022-10-14T11:43:45;100548.03;;;17.95;100.00
53651;BME280;39552;45.776;15.892;2022-10-14T11:46:19;100526.38;;;17.92;100.00
53651;BME280;39552;45.776;15.892;2022-10-14T11:48:49;100533.41;;;18.27;100.00
53651;BME280;39552;45.776;15.892;2022-10-14T11:51:20;100501.50;;;18.16;100.00
53651;BME280;39552;45.776;15.892;2022-10-14T11:53:56;100509.56;;;18.39;100.00
53651;BME280;39552;45.776;15.892;2022-10-14T11:56:31;100511.88;;;18.43;100.00
53651;BME280;39552;45.776;15.892;2022-10-14T11:59:02;100500.63;;;18.46;100.00
53651;BME280;39552;45.776;15.892;2022-10-14T12:01:40;100519.13;;;18.54;100.00
53651;BME280;39552;45.776;15.892;2022-10-14T12:04:13;100497.81;;;18.58;100.00
53651;BME280;39552;45.776;15.892;2022-10-14T12:06:46;100493.38;;;18.66;100.00
53651;BME280;39552;45.776;15.892;2022-10-14T12:09:20;100482.53;;;18.86;100.00
53651;BME280;39552;45.776;15.892;2022-10-14T12:11:51;100477.66;;;18.69;100.00
53651;BME280;39552;45.776;15.892;2022-10-14T12:14:19;100482.25;;;18.89;100.00
53651;BME280;39552;45.776;15.892;2022-10-14T12:16:50;100466.56;;;19.01;100.00
53651;BME280;39552;45.776;15.892;2022-10-14T12:19:21;100471.44;;;18.97;100.00
53651;BME280;39552;45.776;15.892;2022-10-14T12:21:54;100448.91;;;18.84;100.00
53651;BME280;39552;45.776;15.892;2022-10-14T12:24:26;100463.81;;;19.01;100.00
53651;BME280;39552;45.776;15.892;2022-10-14T12:26:54;100471.47;;;19.17;100.00
53651;BME280;39552;45.776;15.892;2022-10-14T12:29:23;100458.47;;;19.09;100.00
53651;BME280;39552;45.776;15.892;2022-10-14T12:32:08;100443.91;;;19.09;100.00
53651;BME280;39552;45.776;15.892;2022-10-14T12:34:43;100445.78;;;19.28;100.00
53651;BME280;39552;45.776;15.892;2022-10-14T12:40:27;100439.16;;;19.59;100.00
53651;BME280;39552;45.776;15.892;2022-10-14T12:42:57;100441.88;;;19.69;100.00
53651;BME280;39552;45.776;15.892;2022-10-14T12:45:27;100452.31;;;19.75;100.00
53651;BME280;39552;45.776;15.892;2022-10-14T12:48:14;100441.78;;;19.80;100.00
53651;BME280;39552;45.776;15.892;2022-10-14T12:50:42;100435.41;;;19.80;100.00
53651;BME280;39552;45.776;15.892;2022-10-14T12:53:19;100434.50;;;19.99;100.00
53651;BME280;39552;45.776;15.892;2022-10-14T12:55:49;100434.44;;;20.18;100.00
53651;BME280;39552;45.776;15.892;2022-10-14T12:58:22;100419.69;;;20.19;100.00
53651;BME280;39552;45.776;15.892;2022-10-14T13:00:53;100437.72;;;20.32;100.00
53651;BME280;39552;45.776;15.892;2022-10-14T13:03:23;100414.91;;;20.21;100.00
53651;BME280;39552;45.776;15.892;2022-10-14T13:09:33;100431.38;;;20.59;100.00
53651;BME280;39552;45.776;15.892;2022-10-14T13:12:39;100433.19;;;20.78;100.00